UAL1010 FACT-KIAD
Flight info
| Callsign | UAL1010 |
|---|---|
| Flight time | N/A |
| Altitude | 30000 |
| Route | IMSOM1A IMSOM UQ34 UVIKU DCT ALDOV DCT 25S010E 20S006E 18S005E 11S000E/N0508F320 DCT ONANA DCT 06S005W 02S010W 02N015W 06N020W/N0501F340 DCT PISKA DCT GROBA DCT MOSOK DCT APOXA DCT NATAS/M084F340 DCT XIBOT DCT 24N040W/M084F360 33N050W 40N060W/M084F380 DCT DOVEY/N0476F380 DCT ACK Q430 RBV HYPER9 |
| Aircraft | B77W/H-SDE1E2E3FGHIJ2J3J4J5M1RWXY/LB1D1 |
Departure
| Time | N/A |
|---|---|
| Airport | Cape Town International Airport (FACT) |
Arrival
| Time | 2026-05-05 16:09 |
|---|---|
| Airport | Washington Dulles International Airport (KIAD) |
| Time | Latitude | Longitude | Altitude | Speed | Heading |
|---|---|---|---|---|---|
| 2026-05-05 12:24 | 31.92900 | -48.66434 | 36203 ft | 454 kts | 311° |
| 2026-05-05 12:24 | 31.97274 | -48.71793 | 36206 ft | 454 kts | 310° |
| 2026-05-05 12:25 | 32.01634 | -48.77144 | 36206 ft | 454 kts | 310° |
| 2026-05-05 12:25 | 32.05987 | -48.82494 | 36205 ft | 453 kts | 310° |
| 2026-05-05 12:26 | 32.10353 | -48.87867 | 36208 ft | 453 kts | 310° |
| 2026-05-05 12:26 | 32.14703 | -48.93228 | 36209 ft | 452 kts | 310° |
| 2026-05-05 12:27 | 32.19054 | -48.98599 | 36205 ft | 452 kts | 310° |
| 2026-05-05 12:27 | 32.23392 | -49.03963 | 36204 ft | 452 kts | 310° |
| 2026-05-05 12:28 | 32.27706 | -49.09302 | 36204 ft | 452 kts | 310° |
| 2026-05-05 12:28 | 32.32059 | -49.14699 | 36203 ft | 452 kts | 309° |
| 2026-05-05 12:29 | 32.36384 | -49.20070 | 36202 ft | 452 kts | 309° |
| 2026-05-05 12:29 | 32.40712 | -49.25452 | 36202 ft | 452 kts | 309° |
| 2026-05-05 12:30 | 32.45018 | -49.30814 | 36202 ft | 451 kts | 309° |
| 2026-05-05 12:30 | 32.49332 | -49.36196 | 36204 ft | 451 kts | 309° |
| 2026-05-05 12:31 | 32.53667 | -49.41610 | 36205 ft | 451 kts | 309° |
| 2026-05-05 12:31 | 32.57972 | -49.46995 | 36204 ft | 451 kts | 309° |
| 2026-05-05 12:32 | 32.62270 | -49.52380 | 36204 ft | 451 kts | 309° |
| 2026-05-05 12:32 | 32.66550 | -49.57751 | 36203 ft | 451 kts | 309° |
| 2026-05-05 12:33 | 32.70864 | -49.63173 | 36202 ft | 451 kts | 309° |
| 2026-05-05 12:33 | 32.75146 | -49.68561 | 36212 ft | 450 kts | 309° |
| 2026-05-05 12:34 | 32.79445 | -49.73978 | 36212 ft | 450 kts | 308° |
| 2026-05-05 12:34 | 32.83728 | -49.79384 | 36209 ft | 450 kts | 308° |
| 2026-05-05 12:35 | 32.87998 | -49.84783 | 36206 ft | 450 kts | 308° |
| 2026-05-05 12:35 | 32.92278 | -49.90202 | 36205 ft | 450 kts | 308° |
| 2026-05-05 12:36 | 32.96558 | -49.95629 | 36205 ft | 450 kts | 308° |
| 2026-05-05 12:36 | 33.00806 | -50.01018 | 36204 ft | 450 kts | 309° |
| 2026-05-05 12:37 | 33.05164 | -50.06413 | 36205 ft | 449 kts | 309° |
| 2026-05-05 12:37 | 33.09478 | -50.11753 | 36205 ft | 449 kts | 308° |
| 2026-05-05 12:38 | 33.13793 | -50.17110 | 36199 ft | 448 kts | 308° |
| 2026-05-05 12:38 | 33.18102 | -50.22467 | 36198 ft | 449 kts | 308° |
| 2026-05-05 12:39 | 33.22427 | -50.27856 | 36197 ft | 449 kts | 308° |
| 2026-05-05 12:39 | 33.26725 | -50.33219 | 36196 ft | 448 kts | 308° |
| 2026-05-05 12:40 | 33.31020 | -50.38586 | 36191 ft | 448 kts | 308° |
| 2026-05-05 12:40 | 33.35327 | -50.43976 | 36182 ft | 448 kts | 308° |
| 2026-05-05 12:41 | 33.39643 | -50.49387 | 36175 ft | 448 kts | 308° |
| 2026-05-05 12:41 | 33.43932 | -50.54772 | 36174 ft | 449 kts | 308° |
| 2026-05-05 12:42 | 33.48219 | -50.60162 | 36174 ft | 448 kts | 308° |
| 2026-05-05 12:42 | 33.52502 | -50.65556 | 36175 ft | 448 kts | 307° |
| 2026-05-05 12:43 | 33.56806 | -50.70984 | 36185 ft | 448 kts | 307° |
| 2026-05-05 12:43 | 33.61076 | -50.76378 | 36185 ft | 448 kts | 307° |
| 2026-05-05 12:44 | 33.65358 | -50.81797 | 36184 ft | 448 kts | 307° |
| 2026-05-05 12:44 | 33.69647 | -50.87231 | 36183 ft | 448 kts | 307° |
| 2026-05-05 12:45 | 33.73915 | -50.92649 | 36181 ft | 448 kts | 307° |
| 2026-05-05 12:45 | 33.78189 | -50.98081 | 36180 ft | 448 kts | 307° |
| 2026-05-05 12:46 | 33.82454 | -51.03511 | 36180 ft | 448 kts | 307° |
| 2026-05-05 12:46 | 33.86714 | -51.08942 | 36179 ft | 448 kts | 307° |
| 2026-05-05 12:47 | 33.90985 | -51.14397 | 36178 ft | 447 kts | 307° |
| 2026-05-05 12:47 | 33.95253 | -51.19855 | 36177 ft | 447 kts | 307° |
| 2026-05-05 12:48 | 33.99514 | -51.25314 | 36176 ft | 447 kts | 307° |
| 2026-05-05 12:48 | 34.03770 | -51.30775 | 36175 ft | 447 kts | 307° |
| 2026-05-05 12:49 | 34.08019 | -51.36235 | 36181 ft | 447 kts | 307° |
| 2026-05-05 12:49 | 34.12243 | -51.41671 | 36175 ft | 445 kts | 306° |
| 2026-05-05 12:50 | 34.16486 | -51.47140 | 36165 ft | 446 kts | 306° |
| 2026-05-05 12:50 | 34.20730 | -51.52622 | 36166 ft | 446 kts | 306° |
| 2026-05-05 12:51 | 34.24958 | -51.58089 | 36168 ft | 447 kts | 306° |
| 2026-05-05 12:51 | 34.29180 | -51.63558 | 36168 ft | 446 kts | 306° |
| 2026-05-05 12:52 | 34.33389 | -51.69018 | 36180 ft | 446 kts | 306° |
| 2026-05-05 12:52 | 34.37614 | -51.74507 | 36180 ft | 446 kts | 306° |
| 2026-05-05 12:53 | 34.41836 | -51.80001 | 36181 ft | 446 kts | 306° |
| 2026-05-05 12:53 | 34.46037 | -51.85478 | 36180 ft | 445 kts | 306° |
| 2026-05-05 12:54 | 34.52361 | -51.93738 | 36178 ft | 445 kts | 306° |
| 2026-05-05 12:55 | 34.56560 | -51.99234 | 36179 ft | 445 kts | 306° |
| 2026-05-05 12:55 | 34.60745 | -52.04719 | 36178 ft | 445 kts | 306° |
| 2026-05-05 12:56 | 34.64962 | -52.10254 | 36179 ft | 445 kts | 306° |
| 2026-05-05 12:56 | 34.69149 | -52.15760 | 36179 ft | 445 kts | 306° |
| 2026-05-05 12:57 | 34.73344 | -52.21285 | 36176 ft | 445 kts | 305° |
| 2026-05-05 12:57 | 34.77522 | -52.26796 | 36174 ft | 444 kts | 305° |
| 2026-05-05 12:58 | 34.81704 | -52.32324 | 36174 ft | 444 kts | 305° |
| 2026-05-05 12:58 | 34.85862 | -52.37826 | 36173 ft | 443 kts | 305° |
| 2026-05-05 12:59 | 34.90029 | -52.43350 | 36172 ft | 443 kts | 305° |
| 2026-05-05 12:59 | 34.94188 | -52.48872 | 36171 ft | 443 kts | 305° |
| 2026-05-05 13:00 | 35.00407 | -52.57146 | 36169 ft | 443 kts | 305° |
| 2026-05-05 13:01 | 35.08726 | -52.68245 | 36180 ft | 442 kts | 304° |
| 2026-05-05 13:01 | 35.12869 | -52.73786 | 36174 ft | 441 kts | 304° |
| 2026-05-05 13:02 | 35.16985 | -52.79300 | 36158 ft | 442 kts | 304° |
| 2026-05-05 13:02 | 35.21122 | -52.84853 | 36128 ft | 442 kts | 304° |
| 2026-05-05 13:03 | 35.25243 | -52.90390 | 36095 ft | 442 kts | 304° |
| 2026-05-05 13:03 | 35.29394 | -52.95978 | 36072 ft | 441 kts | 304° |
| 2026-05-05 13:04 | 35.33504 | -53.01521 | 36062 ft | 441 kts | 304° |
| 2026-05-05 13:04 | 35.37618 | -53.07076 | 36062 ft | 442 kts | 304° |
| 2026-05-05 13:05 | 35.41741 | -53.12655 | 36042 ft | 441 kts | 304° |
| 2026-05-05 13:05 | 35.45835 | -53.18202 | 35998 ft | 440 kts | 303° |
| 2026-05-05 13:06 | 35.49928 | -53.23758 | 35968 ft | 440 kts | 303° |
| 2026-05-05 13:06 | 35.54027 | -53.29330 | 35967 ft | 440 kts | 303° |
| 2026-05-05 13:07 | 35.58127 | -53.34913 | 35973 ft | 440 kts | 303° |
| 2026-05-05 13:07 | 35.62199 | -53.40467 | 35973 ft | 439 kts | 303° |
| 2026-05-05 13:08 | 35.66275 | -53.46035 | 35973 ft | 439 kts | 303° |
| 2026-05-05 13:08 | 35.70358 | -53.51624 | 35972 ft | 439 kts | 303° |
| 2026-05-05 13:09 | 35.74430 | -53.57206 | 35971 ft | 439 kts | 303° |
| 2026-05-05 13:09 | 35.78492 | -53.62781 | 35971 ft | 438 kts | 303° |
| 2026-05-05 13:10 | 35.82536 | -53.68343 | 35988 ft | 437 kts | 302° |
| 2026-05-05 13:10 | 35.86589 | -53.73927 | 35994 ft | 436 kts | 302° |
| 2026-05-05 13:11 | 35.90622 | -53.79492 | 35997 ft | 436 kts | 302° |
| 2026-05-05 13:11 | 35.94647 | -53.85055 | 35997 ft | 435 kts | 302° |
| 2026-05-05 13:12 | 35.98650 | -53.90597 | 35994 ft | 435 kts | 302° |
| 2026-05-05 13:12 | 36.02676 | -53.96182 | 35993 ft | 435 kts | 302° |
| 2026-05-05 13:13 | 36.06694 | -54.01762 | 35993 ft | 435 kts | 302° |
| 2026-05-05 13:13 | 36.10715 | -54.07357 | 35989 ft | 435 kts | 302° |
| 2026-05-05 13:14 | 36.14727 | -54.12949 | 35983 ft | 435 kts | 302° |
| 2026-05-05 13:14 | 36.18727 | -54.18534 | 35982 ft | 435 kts | 302° |
| 2026-05-05 13:15 | 36.22725 | -54.24124 | 35983 ft | 435 kts | 302° |
| 2026-05-05 13:15 | 36.26702 | -54.29694 | 35982 ft | 435 kts | 302° |
| 2026-05-05 13:16 | 36.30710 | -54.35317 | 35983 ft | 435 kts | 302° |
| 2026-05-05 13:16 | 36.34696 | -54.40920 | 35983 ft | 435 kts | 302° |
| 2026-05-05 13:17 | 36.38692 | -54.46545 | 35983 ft | 435 kts | 302° |
| 2026-05-05 13:17 | 36.42677 | -54.52165 | 35983 ft | 435 kts | 302° |
| 2026-05-05 13:18 | 36.46652 | -54.57781 | 35984 ft | 435 kts | 302° |
| 2026-05-05 13:18 | 36.50634 | -54.63415 | 35982 ft | 435 kts | 302° |
| 2026-05-05 13:19 | 36.54613 | -54.69054 | 36000 ft | 434 kts | 301° |
| 2026-05-05 13:19 | 36.58583 | -54.74691 | 36001 ft | 434 kts | 301° |
| 2026-05-05 13:20 | 36.62543 | -54.80322 | 36002 ft | 434 kts | 301° |
| 2026-05-05 13:20 | 36.66505 | -54.85966 | 36002 ft | 434 kts | 301° |
| 2026-05-05 13:21 | 36.70481 | -54.91637 | 36001 ft | 434 kts | 301° |
| 2026-05-05 13:21 | 36.74432 | -54.97316 | 35997 ft | 434 kts | 301° |
| 2026-05-05 13:22 | 36.78404 | -55.02970 | 35996 ft | 434 kts | 301° |
| 2026-05-05 13:22 | 36.82356 | -55.08630 | 35998 ft | 433 kts | 301° |
| 2026-05-05 13:23 | 36.86280 | -55.14282 | 35997 ft | 434 kts | 301° |
| 2026-05-05 13:23 | 36.90247 | -55.19965 | 35994 ft | 435 kts | 301° |
| 2026-05-05 13:24 | 36.94190 | -55.25681 | 35996 ft | 435 kts | 301° |
| 2026-05-05 13:24 | 36.98136 | -55.31384 | 35998 ft | 435 kts | 301° |
| 2026-05-05 13:25 | 37.02088 | -55.37108 | 35996 ft | 435 kts | 301° |
| 2026-05-05 13:25 | 37.06029 | -55.42811 | 35998 ft | 435 kts | 301° |
| 2026-05-05 13:26 | 37.09971 | -55.48521 | 35999 ft | 435 kts | 301° |
| 2026-05-05 13:26 | 37.13927 | -55.54277 | 35984 ft | 436 kts | 301° |
| 2026-05-05 13:27 | 37.17865 | -55.60008 | 35982 ft | 436 kts | 301° |
| 2026-05-05 13:27 | 37.21817 | -55.65778 | 35985 ft | 435 kts | 300° |
| 2026-05-05 13:28 | 37.25734 | -55.71506 | 36004 ft | 435 kts | 300° |
| 2026-05-05 13:28 | 37.29679 | -55.77284 | 36003 ft | 436 kts | 300° |
| 2026-05-05 13:29 | 37.33617 | -55.83063 | 36003 ft | 436 kts | 300° |
| 2026-05-05 13:29 | 37.37555 | -55.88852 | 36003 ft | 437 kts | 300° |
| 2026-05-05 13:30 | 37.41504 | -55.94661 | 36001 ft | 437 kts | 300° |
| 2026-05-05 13:30 | 37.45414 | -56.00430 | 36001 ft | 436 kts | 300° |
| 2026-05-05 13:31 | 37.49340 | -56.06232 | 36001 ft | 438 kts | 300° |
| 2026-05-05 13:31 | 37.53303 | -56.12100 | 36001 ft | 439 kts | 300° |
| 2026-05-05 13:32 | 37.57232 | -56.17924 | 35999 ft | 440 kts | 300° |
| 2026-05-05 13:32 | 37.61192 | -56.23808 | 35998 ft | 441 kts | 300° |
| 2026-05-05 13:33 | 37.65158 | -56.29709 | 36022 ft | 441 kts | 300° |
| 2026-05-05 13:33 | 37.69097 | -56.35581 | 36065 ft | 441 kts | 300° |
| 2026-05-05 13:34 | 37.73051 | -56.41486 | 36088 ft | 440 kts | 300° |
| 2026-05-05 13:34 | 37.76979 | -56.47362 | 36088 ft | 439 kts | 300° |
| 2026-05-05 13:35 | 37.80912 | -56.53257 | 36082 ft | 439 kts | 300° |
| 2026-05-05 13:35 | 37.84830 | -56.59143 | 36082 ft | 439 kts | 300° |
| 2026-05-05 13:36 | 37.88757 | -56.65049 | 36080 ft | 439 kts | 299° |
| 2026-05-05 13:36 | 37.92675 | -56.70953 | 36098 ft | 438 kts | 299° |
| 2026-05-05 13:37 | 37.96607 | -56.76890 | 36099 ft | 439 kts | 299° |
| 2026-05-05 13:37 | 38.00516 | -56.82803 | 36099 ft | 440 kts | 299° |
| 2026-05-05 13:38 | 38.04445 | -56.88757 | 36097 ft | 440 kts | 298° |
| 2026-05-05 13:38 | 38.08362 | -56.94703 | 36097 ft | 440 kts | 298° |
| 2026-05-05 13:39 | 38.12259 | -57.00630 | 36082 ft | 440 kts | 298° |
| 2026-05-05 13:39 | 38.16185 | -57.06614 | 36079 ft | 441 kts | 298° |
| 2026-05-05 13:40 | 38.20117 | -57.12616 | 36078 ft | 442 kts | 298° |
| 2026-05-05 13:40 | 38.24034 | -57.18605 | 36078 ft | 442 kts | 298° |
| 2026-05-05 13:41 | 38.27969 | -57.24637 | 36079 ft | 442 kts | 298° |
| 2026-05-05 13:41 | 38.31889 | -57.30653 | 36079 ft | 443 kts | 298° |
| 2026-05-05 13:42 | 38.35801 | -57.36670 | 36078 ft | 443 kts | 298° |
| 2026-05-05 13:42 | 38.39708 | -57.42689 | 36078 ft | 443 kts | 298° |
| 2026-05-05 13:43 | 38.43647 | -57.48770 | 36078 ft | 443 kts | 298° |
| 2026-05-05 13:43 | 38.47562 | -57.54826 | 36078 ft | 444 kts | 298° |
| 2026-05-05 13:44 | 38.51500 | -57.60927 | 36078 ft | 444 kts | 298° |
| 2026-05-05 13:44 | 38.55430 | -57.67028 | 36090 ft | 443 kts | 298° |
| 2026-05-05 13:45 | 38.59341 | -57.73111 | 36096 ft | 443 kts | 298° |
| 2026-05-05 13:45 | 38.63229 | -57.79170 | 36096 ft | 443 kts | 298° |
| 2026-05-05 13:46 | 38.67134 | -57.85265 | 36095 ft | 443 kts | 298° |
| 2026-05-05 13:46 | 38.71007 | -57.91325 | 36094 ft | 443 kts | 298° |
| 2026-05-05 13:47 | 38.74903 | -57.97431 | 36093 ft | 443 kts | 298° |
| 2026-05-05 13:47 | 38.78777 | -58.03514 | 36093 ft | 442 kts | 298° |
| 2026-05-05 13:48 | 38.82641 | -58.09594 | 36088 ft | 443 kts | 298° |
| 2026-05-05 13:48 | 38.86531 | -58.15727 | 36087 ft | 443 kts | 298° |
| 2026-05-05 13:49 | 38.90410 | -58.21852 | 36092 ft | 443 kts | 298° |
| 2026-05-05 13:49 | 38.94290 | -58.27992 | 36092 ft | 442 kts | 298° |
| 2026-05-05 13:50 | 38.98180 | -58.34158 | 36093 ft | 441 kts | 298° |
| 2026-05-05 13:50 | 39.02009 | -58.40240 | 36095 ft | 440 kts | 298° |
| 2026-05-05 13:51 | 39.05876 | -58.46396 | 36096 ft | 440 kts | 298° |
| 2026-05-05 13:51 | 39.09718 | -58.52521 | 36096 ft | 440 kts | 298° |
| 2026-05-05 13:52 | 39.13558 | -58.58658 | 36080 ft | 441 kts | 298° |
| 2026-05-05 13:52 | 39.17413 | -58.64828 | 36079 ft | 441 kts | 298° |
| 2026-05-05 13:53 | 39.21246 | -58.70975 | 36095 ft | 440 kts | 297° |
| 2026-05-05 13:53 | 39.25061 | -58.77106 | 36096 ft | 440 kts | 297° |
| 2026-05-05 13:54 | 39.28877 | -58.83250 | 36097 ft | 440 kts | 297° |
| 2026-05-05 13:54 | 39.32697 | -58.89412 | 36097 ft | 440 kts | 297° |
| 2026-05-05 13:55 | 39.36512 | -58.95578 | 36095 ft | 440 kts | 297° |
| 2026-05-05 13:55 | 39.40314 | -59.01735 | 36095 ft | 439 kts | 297° |
| 2026-05-05 13:56 | 39.44124 | -59.07918 | 36094 ft | 440 kts | 298° |
| 2026-05-05 13:56 | 39.47914 | -59.14080 | 36094 ft | 440 kts | 298° |
| 2026-05-05 13:57 | 39.51750 | -59.20329 | 36094 ft | 441 kts | 298° |
| 2026-05-05 13:57 | 39.55533 | -59.26504 | 36093 ft | 442 kts | 298° |
| 2026-05-05 13:58 | 39.59351 | -59.32747 | 36093 ft | 442 kts | 298° |
| 2026-05-05 13:58 | 39.63192 | -59.39041 | 36093 ft | 442 kts | 298° |
| 2026-05-05 13:59 | 39.68898 | -59.48414 | 36092 ft | 443 kts | 298° |
| 2026-05-05 14:00 | 39.73978 | -59.56782 | 36092 ft | 444 kts | 299° |
| 2026-05-05 14:00 | 39.78429 | -59.64133 | 36091 ft | 445 kts | 299° |
| 2026-05-05 14:01 | 39.82266 | -59.70483 | 36106 ft | 444 kts | 299° |
| 2026-05-05 14:01 | 39.86064 | -59.76781 | 36106 ft | 444 kts | 299° |
| 2026-05-05 14:02 | 39.89857 | -59.83084 | 36106 ft | 443 kts | 299° |
| 2026-05-05 14:02 | 39.93650 | -59.89399 | 36106 ft | 443 kts | 299° |
| 2026-05-05 14:03 | 39.97413 | -59.95726 | 36100 ft | 441 kts | 296° |
| 2026-05-05 14:03 | 40.00089 | -60.02691 | 36112 ft | 428 kts | 281° |
| 2026-05-05 14:04 | 40.00919 | -60.06380 | 36391 ft | 427 kts | 279° |
| 2026-05-05 14:04 | 40.01713 | -60.10094 | 36874 ft | 423 kts | 279° |
| 2026-05-05 14:04 | 40.02480 | -60.13749 | 37275 ft | 421 kts | 278° |
| 2026-05-05 14:04 | 40.03238 | -60.17461 | 37568 ft | 422 kts | 278° |
| 2026-05-05 14:05 | 40.03972 | -60.21133 | 37888 ft | 423 kts | 278° |
| 2026-05-05 14:05 | 40.04707 | -60.24873 | 38104 ft | 425 kts | 278° |
| 2026-05-05 14:05 | 40.06144 | -60.32290 | 38132 ft | 420 kts | 278° |
| 2026-05-05 14:06 | 40.07553 | -60.39656 | 38109 ft | 419 kts | 278° |
| 2026-05-05 14:06 | 40.08959 | -60.47078 | 38105 ft | 419 kts | 278° |
| 2026-05-05 14:07 | 40.10344 | -60.54436 | 38080 ft | 421 kts | 278° |
| 2026-05-05 14:07 | 40.11745 | -60.61915 | 38074 ft | 422 kts | 278° |
| 2026-05-05 14:08 | 40.13134 | -60.69366 | 38088 ft | 422 kts | 277° |
| 2026-05-05 14:08 | 40.14510 | -60.76775 | 38090 ft | 422 kts | 277° |
| 2026-05-05 14:09 | 40.15891 | -60.84227 | 38089 ft | 424 kts | 278° |
| 2026-05-05 14:09 | 40.17264 | -60.91684 | 38088 ft | 425 kts | 278° |
| 2026-05-05 14:10 | 40.18636 | -60.99166 | 38093 ft | 426 kts | 278° |
| 2026-05-05 14:10 | 40.20010 | -61.06682 | 38101 ft | 427 kts | 278° |
| 2026-05-05 14:11 | 40.21381 | -61.14214 | 38103 ft | 428 kts | 278° |
| 2026-05-05 14:11 | 40.22759 | -61.21811 | 38102 ft | 429 kts | 279° |
| 2026-05-05 14:12 | 40.24121 | -61.29350 | 38101 ft | 430 kts | 279° |
| 2026-05-05 14:12 | 40.25489 | -61.36956 | 38100 ft | 430 kts | 279° |
| 2026-05-05 14:13 | 40.26853 | -61.44566 | 38099 ft | 430 kts | 279° |
| 2026-05-05 14:13 | 40.28210 | -61.52172 | 38098 ft | 431 kts | 279° |
| 2026-05-05 14:14 | 40.29568 | -61.59820 | 38097 ft | 431 kts | 279° |
| 2026-05-05 14:14 | 40.30924 | -61.67473 | 38104 ft | 431 kts | 279° |
| 2026-05-05 14:15 | 40.32270 | -61.75111 | 38106 ft | 432 kts | 279° |
| 2026-05-05 14:15 | 40.33608 | -61.82729 | 38105 ft | 432 kts | 279° |
| 2026-05-05 14:16 | 40.34951 | -61.90412 | 38104 ft | 432 kts | 279° |
| 2026-05-05 14:16 | 40.36283 | -61.98063 | 38102 ft | 432 kts | 279° |
| 2026-05-05 14:17 | 40.37608 | -62.05707 | 38101 ft | 432 kts | 279° |
| 2026-05-05 14:17 | 40.38930 | -62.13367 | 38101 ft | 432 kts | 279° |
| 2026-05-05 14:18 | 40.40250 | -62.21044 | 38104 ft | 433 kts | 279° |
| 2026-05-05 14:18 | 40.41580 | -62.28816 | 38102 ft | 433 kts | 279° |
| 2026-05-05 14:19 | 40.42894 | -62.36523 | 38098 ft | 433 kts | 279° |
| 2026-05-05 14:19 | 40.44208 | -62.44272 | 38098 ft | 434 kts | 279° |
| 2026-05-05 14:20 | 40.45504 | -62.51947 | 38098 ft | 434 kts | 279° |
| 2026-05-05 14:20 | 40.46811 | -62.59710 | 38098 ft | 435 kts | 279° |
| 2026-05-05 14:21 | 40.48115 | -62.67497 | 38105 ft | 435 kts | 279° |
| 2026-05-05 14:21 | 40.49404 | -62.75223 | 38107 ft | 436 kts | 279° |
| 2026-05-05 14:22 | 40.50695 | -62.82998 | 38107 ft | 436 kts | 279° |
| 2026-05-05 14:22 | 40.51977 | -62.90745 | 38106 ft | 436 kts | 279° |
| 2026-05-05 14:23 | 40.53260 | -62.98546 | 38107 ft | 436 kts | 279° |
| 2026-05-05 14:23 | 40.54531 | -63.06307 | 38102 ft | 437 kts | 279° |
| 2026-05-05 14:24 | 40.55797 | -63.14086 | 38103 ft | 437 kts | 279° |
| 2026-05-05 14:24 | 40.57070 | -63.21926 | 38102 ft | 438 kts | 280° |
| 2026-05-05 14:25 | 40.58341 | -63.29740 | 38100 ft | 438 kts | 279° |
| 2026-05-05 14:25 | 40.59589 | -63.37527 | 38097 ft | 438 kts | 280° |
| 2026-05-05 14:26 | 40.60841 | -63.45390 | 38096 ft | 438 kts | 280° |
| 2026-05-05 14:26 | 40.62094 | -63.53194 | 38094 ft | 438 kts | 280° |
| 2026-05-05 14:27 | 40.63340 | -63.61034 | 38081 ft | 438 kts | 280° |
| 2026-05-05 14:27 | 40.64584 | -63.68888 | 38069 ft | 438 kts | 279° |
| 2026-05-05 14:28 | 40.65803 | -63.76690 | 38053 ft | 438 kts | 279° |
| 2026-05-05 14:28 | 40.67031 | -63.84500 | 38043 ft | 438 kts | 280° |
| 2026-05-05 14:29 | 40.68252 | -63.92377 | 38036 ft | 438 kts | 279° |
| 2026-05-05 14:29 | 40.69472 | -64.00253 | 38035 ft | 439 kts | 279° |
| 2026-05-05 14:30 | 40.70683 | -64.08095 | 38032 ft | 439 kts | 279° |
| 2026-05-05 14:30 | 40.71888 | -64.15936 | 38038 ft | 439 kts | 279° |
| 2026-05-05 14:31 | 40.73095 | -64.23837 | 38049 ft | 439 kts | 280° |
| 2026-05-05 14:31 | 40.74292 | -64.31702 | 38042 ft | 438 kts | 280° |
| 2026-05-05 14:32 | 40.75478 | -64.39542 | 38029 ft | 438 kts | 280° |
| 2026-05-05 14:32 | 40.76659 | -64.47377 | 38028 ft | 437 kts | 280° |
| 2026-05-05 14:33 | 40.77832 | -64.55203 | 38028 ft | 438 kts | 280° |
| 2026-05-05 14:33 | 40.79006 | -64.63074 | 38027 ft | 438 kts | 280° |
| 2026-05-05 14:34 | 40.80172 | -64.70932 | 38035 ft | 438 kts | 280° |
| 2026-05-05 14:34 | 40.81336 | -64.78810 | 38034 ft | 438 kts | 280° |
| 2026-05-05 14:35 | 40.82493 | -64.86684 | 38031 ft | 437 kts | 280° |
| 2026-05-05 14:35 | 40.83643 | -64.94547 | 38027 ft | 437 kts | 280° |
| 2026-05-05 14:36 | 40.84794 | -65.02454 | 38025 ft | 437 kts | 280° |
| 2026-05-05 14:36 | 40.85932 | -65.10319 | 38024 ft | 437 kts | 280° |
| 2026-05-05 14:37 | 40.87061 | -65.18156 | 38023 ft | 437 kts | 280° |
| 2026-05-05 14:37 | 40.88187 | -65.26010 | 38022 ft | 437 kts | 280° |
| 2026-05-05 14:38 | 40.89310 | -65.33882 | 38012 ft | 437 kts | 280° |
| 2026-05-05 14:38 | 40.90420 | -65.41712 | 37999 ft | 437 kts | 280° |
| 2026-05-05 14:39 | 40.91534 | -65.49602 | 37995 ft | 436 kts | 280° |
| 2026-05-05 14:39 | 40.92638 | -65.57461 | 37994 ft | 436 kts | 280° |
| 2026-05-05 14:40 | 40.93739 | -65.65343 | 37993 ft | 436 kts | 279° |
| 2026-05-05 14:40 | 40.94834 | -65.73227 | 38001 ft | 436 kts | 279° |
| 2026-05-05 14:41 | 40.95923 | -65.81101 | 38000 ft | 436 kts | 280° |
| 2026-05-05 14:41 | 40.97005 | -65.88968 | 37998 ft | 436 kts | 280° |
| 2026-05-05 14:42 | 40.98075 | -65.96791 | 37997 ft | 436 kts | 280° |
| 2026-05-05 14:42 | 40.99148 | -66.04675 | 38002 ft | 436 kts | 280° |
| 2026-05-05 14:43 | 41.00217 | -66.12580 | 38010 ft | 436 kts | 280° |
| 2026-05-05 14:43 | 41.01282 | -66.20489 | 38002 ft | 436 kts | 280° |
| 2026-05-05 14:44 | 41.02337 | -66.28371 | 37997 ft | 436 kts | 280° |
| 2026-05-05 14:44 | 41.03387 | -66.36253 | 38004 ft | 436 kts | 280° |
| 2026-05-05 14:45 | 41.04428 | -66.44111 | 38006 ft | 436 kts | 280° |
| 2026-05-05 14:45 | 41.05469 | -66.52016 | 38006 ft | 436 kts | 280° |
| 2026-05-05 14:46 | 41.06500 | -66.59882 | 38006 ft | 437 kts | 280° |
| 2026-05-05 14:46 | 41.07528 | -66.67780 | 38011 ft | 437 kts | 279° |
| 2026-05-05 14:47 | 41.08555 | -66.75703 | 38012 ft | 437 kts | 279° |
| 2026-05-05 14:47 | 41.09575 | -66.83626 | 38011 ft | 437 kts | 279° |
| 2026-05-05 14:48 | 41.10592 | -66.91563 | 38012 ft | 437 kts | 279° |
| 2026-05-05 14:48 | 41.11566 | -66.99500 | 38008 ft | 437 kts | 276° |
| 2026-05-05 14:49 | 41.12148 | -67.07494 | 38011 ft | 437 kts | 276° |
| 2026-05-05 14:49 | 41.12696 | -67.15516 | 38010 ft | 437 kts | 275° |
| 2026-05-05 14:50 | 41.13234 | -67.23557 | 38009 ft | 438 kts | 275° |
| 2026-05-05 14:50 | 41.13761 | -67.31556 | 38008 ft | 438 kts | 275° |
| 2026-05-05 14:51 | 41.14284 | -67.39620 | 38007 ft | 438 kts | 275° |
| 2026-05-05 14:51 | 41.14797 | -67.47623 | 38006 ft | 438 kts | 275° |
| 2026-05-05 14:52 | 41.15303 | -67.55617 | 38006 ft | 438 kts | 276° |
| 2026-05-05 14:52 | 41.15808 | -67.63688 | 38005 ft | 438 kts | 276° |
| 2026-05-05 14:53 | 41.16307 | -67.71732 | 38010 ft | 438 kts | 275° |
| 2026-05-05 14:53 | 41.16798 | -67.79763 | 38008 ft | 438 kts | 275° |
| 2026-05-05 14:54 | 41.17283 | -67.87774 | 38007 ft | 438 kts | 275° |
| 2026-05-05 14:54 | 41.17766 | -67.95864 | 38005 ft | 439 kts | 275° |
| 2026-05-05 14:55 | 41.18241 | -68.03894 | 38004 ft | 439 kts | 275° |
| 2026-05-05 14:55 | 41.18712 | -68.11971 | 38008 ft | 439 kts | 275° |
| 2026-05-05 14:56 | 41.19175 | -68.20004 | 38011 ft | 439 kts | 275° |
| 2026-05-05 14:56 | 41.19636 | -68.28097 | 38004 ft | 439 kts | 275° |
| 2026-05-05 14:57 | 41.20089 | -68.36139 | 37998 ft | 439 kts | 275° |
| 2026-05-05 14:57 | 41.20538 | -68.44223 | 37998 ft | 439 kts | 275° |
| 2026-05-05 14:58 | 41.20981 | -68.52296 | 37998 ft | 440 kts | 275° |
| 2026-05-05 14:58 | 41.21418 | -68.60368 | 37999 ft | 440 kts | 275° |
| 2026-05-05 14:59 | 41.21850 | -68.68463 | 38005 ft | 440 kts | 274° |
| 2026-05-05 14:59 | 41.22276 | -68.76582 | 38007 ft | 440 kts | 274° |
| 2026-05-05 15:00 | 41.22628 | -68.83337 | 38008 ft | 440 kts | 274° |
| 2026-05-05 15:00 | 41.23112 | -68.92749 | 38009 ft | 440 kts | 274° |
| 2026-05-05 15:01 | 41.23521 | -69.00822 | 38009 ft | 441 kts | 274° |
| 2026-05-05 15:01 | 41.23927 | -69.08945 | 38010 ft | 441 kts | 274° |
| 2026-05-05 15:02 | 41.24326 | -69.17053 | 38010 ft | 441 kts | 274° |
| 2026-05-05 15:02 | 41.24718 | -69.25144 | 38011 ft | 441 kts | 274° |
| 2026-05-05 15:03 | 41.25105 | -69.33232 | 38011 ft | 441 kts | 274° |
| 2026-05-05 15:03 | 41.25488 | -69.41383 | 38011 ft | 441 kts | 274° |
| 2026-05-05 15:04 | 41.25863 | -69.49463 | 38010 ft | 441 kts | 274° |
| 2026-05-05 15:04 | 41.26236 | -69.57623 | 38008 ft | 442 kts | 274° |
| 2026-05-05 15:05 | 41.26783 | -69.69844 | 38014 ft | 442 kts | 274° |
| 2026-05-05 15:06 | 41.27139 | -69.77977 | 38015 ft | 442 kts | 274° |
| 2026-05-05 15:06 | 41.27490 | -69.86098 | 38015 ft | 442 kts | 274° |
| 2026-05-05 15:07 | 41.27838 | -69.94299 | 38015 ft | 442 kts | 274° |
| 2026-05-05 15:07 | 41.27876 | -70.02432 | 38015 ft | 443 kts | 264° |
| 2026-05-05 15:08 | 41.26518 | -70.10482 | 38019 ft | 445 kts | 257° |
| 2026-05-05 15:08 | 41.24945 | -70.18426 | 38019 ft | 445 kts | 257° |
| 2026-05-05 15:09 | 41.23316 | -70.26512 | 38013 ft | 445 kts | 256° |
| 2026-05-05 15:09 | 41.21677 | -70.34563 | 38012 ft | 445 kts | 256° |
| 2026-05-05 15:10 | 41.20047 | -70.42516 | 38000 ft | 447 kts | 256° |
| 2026-05-05 15:10 | 41.18387 | -70.50568 | 38000 ft | 450 kts | 256° |
| 2026-05-05 15:11 | 41.16720 | -70.58616 | 38013 ft | 451 kts | 255° |
| 2026-05-05 15:11 | 41.15032 | -70.66730 | 38013 ft | 450 kts | 255° |
| 2026-05-05 15:12 | 41.13359 | -70.74738 | 38008 ft | 450 kts | 254° |
| 2026-05-05 15:12 | 41.11674 | -70.82775 | 38001 ft | 450 kts | 254° |
| 2026-05-05 15:13 | 41.09958 | -70.90923 | 37996 ft | 450 kts | 254° |
| 2026-05-05 15:13 | 41.08247 | -70.99024 | 37993 ft | 450 kts | 254° |
| 2026-05-05 15:14 | 41.06536 | -71.07091 | 37994 ft | 450 kts | 254° |
| 2026-05-05 15:14 | 41.04814 | -71.15176 | 37994 ft | 450 kts | 254° |
| 2026-05-05 15:15 | 41.03095 | -71.23213 | 37994 ft | 450 kts | 254° |
| 2026-05-05 15:15 | 41.01347 | -71.31355 | 37993 ft | 450 kts | 254° |
| 2026-05-05 15:16 | 40.99541 | -71.39314 | 37992 ft | 450 kts | 251° |
| 2026-05-05 15:16 | 40.97410 | -71.47282 | 37986 ft | 450 kts | 251° |
| 2026-05-05 15:17 | 40.95336 | -71.55060 | 37982 ft | 451 kts | 251° |
| 2026-05-05 15:17 | 40.93230 | -71.62976 | 37981 ft | 452 kts | 251° |
| 2026-05-05 15:18 | 40.91177 | -71.70847 | 37985 ft | 452 kts | 251° |
| 2026-05-05 15:18 | 40.89109 | -71.78799 | 37989 ft | 452 kts | 251° |
| 2026-05-05 15:19 | 40.87037 | -71.86746 | 37991 ft | 452 kts | 251° |
| 2026-05-05 15:19 | 40.84962 | -71.94676 | 37991 ft | 452 kts | 251° |
| 2026-05-05 15:20 | 40.82868 | -72.02647 | 37990 ft | 452 kts | 251° |
| 2026-05-05 15:20 | 40.80810 | -72.10463 | 37988 ft | 452 kts | 251° |
| 2026-05-05 15:21 | 40.78756 | -72.18238 | 37987 ft | 452 kts | 251° |
| 2026-05-05 15:21 | 40.76770 | -72.26098 | 37989 ft | 452 kts | 252° |
| 2026-05-05 15:22 | 40.74883 | -72.33965 | 37991 ft | 452 kts | 252° |
| 2026-05-05 15:22 | 40.72957 | -72.41946 | 37993 ft | 452 kts | 252° |
| 2026-05-05 15:23 | 40.71029 | -72.49880 | 37994 ft | 452 kts | 252° |
| 2026-05-05 15:23 | 40.69078 | -72.57881 | 37994 ft | 452 kts | 252° |
| 2026-05-05 15:24 | 40.67133 | -72.65817 | 37995 ft | 451 kts | 251° |
| 2026-05-05 15:24 | 40.65168 | -72.73805 | 37997 ft | 451 kts | 251° |
| 2026-05-05 15:25 | 40.63218 | -72.81707 | 37994 ft | 451 kts | 251° |
| 2026-05-05 15:25 | 40.61283 | -72.89519 | 37990 ft | 451 kts | 251° |
| 2026-05-05 15:26 | 40.59333 | -72.97364 | 37983 ft | 451 kts | 251° |
| 2026-05-05 15:26 | 40.57394 | -73.05145 | 37977 ft | 451 kts | 251° |
| 2026-05-05 15:27 | 40.55437 | -73.12968 | 37974 ft | 450 kts | 251° |
| 2026-05-05 15:27 | 40.53483 | -73.20752 | 37972 ft | 450 kts | 251° |
| 2026-05-05 15:28 | 40.51510 | -73.28587 | 37970 ft | 450 kts | 251° |
| 2026-05-05 15:28 | 40.49540 | -73.36384 | 37967 ft | 450 kts | 251° |
| 2026-05-05 15:29 | 40.47568 | -73.44166 | 37966 ft | 450 kts | 251° |
| 2026-05-05 15:29 | 40.45595 | -73.51927 | 37966 ft | 450 kts | 251° |
| 2026-05-05 15:30 | 40.43622 | -73.59658 | 37966 ft | 450 kts | 251° |
| 2026-05-05 15:30 | 40.41625 | -73.67449 | 37969 ft | 450 kts | 251° |
| 2026-05-05 15:31 | 40.39622 | -73.75240 | 37970 ft | 450 kts | 251° |
| 2026-05-05 15:31 | 40.37619 | -73.83006 | 37970 ft | 450 kts | 251° |
| 2026-05-05 15:32 | 40.35593 | -73.90833 | 37967 ft | 450 kts | 251° |
| 2026-05-05 15:32 | 40.33579 | -73.98599 | 37963 ft | 450 kts | 251° |
| 2026-05-05 15:33 | 40.31565 | -74.06354 | 37961 ft | 450 kts | 251° |
| 2026-05-05 15:33 | 40.29542 | -74.14119 | 37962 ft | 450 kts | 251° |
| 2026-05-05 15:34 | 40.27517 | -74.21867 | 37965 ft | 450 kts | 251° |
| 2026-05-05 15:34 | 40.25484 | -74.29618 | 37967 ft | 450 kts | 251° |
| 2026-05-05 15:35 | 40.23454 | -74.37333 | 37965 ft | 450 kts | 251° |
| 2026-05-05 15:35 | 40.21500 | -74.45156 | 37958 ft | 450 kts | 257° |
| 2026-05-05 15:36 | 40.21046 | -74.53261 | 37951 ft | 452 kts | 274° |
| 2026-05-05 15:36 | 40.22159 | -74.61359 | 37951 ft | 453 kts | 280° |
| 2026-05-05 15:37 | 40.23441 | -74.69431 | 37951 ft | 453 kts | 280° |
| 2026-05-05 15:37 | 40.24726 | -74.77531 | 37947 ft | 452 kts | 280° |
| 2026-05-05 15:38 | 40.25999 | -74.85586 | 37942 ft | 452 kts | 280° |
| 2026-05-05 15:38 | 40.27280 | -74.93635 | 37938 ft | 451 kts | 280° |
| 2026-05-05 15:39 | 40.28600 | -75.01669 | 37937 ft | 451 kts | 281° |
| 2026-05-05 15:39 | 40.29910 | -75.09683 | 37940 ft | 450 kts | 281° |
| 2026-05-05 15:40 | 40.31213 | -75.17701 | 37937 ft | 450 kts | 281° |
| 2026-05-05 15:40 | 40.32507 | -75.25710 | 37933 ft | 449 kts | 281° |
| 2026-05-05 15:41 | 40.33784 | -75.33649 | 37933 ft | 448 kts | 281° |
| 2026-05-05 15:41 | 40.35067 | -75.41663 | 37932 ft | 447 kts | 281° |
| 2026-05-05 15:42 | 40.36333 | -75.49613 | 37930 ft | 447 kts | 281° |
| 2026-05-05 15:42 | 40.37254 | -75.57644 | 37924 ft | 445 kts | 270° |
| 2026-05-05 15:43 | 40.36272 | -75.65611 | 37925 ft | 445 kts | 251° |
| 2026-05-05 15:43 | 40.35081 | -75.69314 | 37744 ft | 439 kts | 245° |
| 2026-05-05 15:43 | 40.33738 | -75.72948 | 37054 ft | 444 kts | 244° |
| 2026-05-05 15:43 | 40.32379 | -75.76546 | 36275 ft | 450 kts | 244° |
| 2026-05-05 15:44 | 40.30974 | -75.80239 | 35462 ft | 455 kts | 244° |
| 2026-05-05 15:44 | 40.29560 | -75.83935 | 34609 ft | 460 kts | 244° |
| 2026-05-05 15:44 | 40.28116 | -75.87695 | 33597 ft | 464 kts | 244° |
| 2026-05-05 15:44 | 40.26646 | -75.91510 | 32568 ft | 465 kts | 244° |
| 2026-05-05 15:45 | 40.25184 | -75.95293 | 31612 ft | 464 kts | 244° |
| 2026-05-05 15:45 | 40.23722 | -75.99069 | 30697 ft | 463 kts | 244° |
| 2026-05-05 15:45 | 40.22291 | -76.02758 | 30057 ft | 456 kts | 244° |
| 2026-05-05 15:45 | 40.20865 | -76.06426 | 29555 ft | 447 kts | 244° |
| 2026-05-05 15:46 | 40.19471 | -76.10008 | 29035 ft | 438 kts | 244° |
| 2026-05-05 15:46 | 40.18117 | -76.13476 | 28502 ft | 430 kts | 243° |
| 2026-05-05 15:46 | 40.16767 | -76.16934 | 28016 ft | 423 kts | 243° |
| 2026-05-05 15:46 | 40.15435 | -76.20344 | 27535 ft | 417 kts | 244° |
| 2026-05-05 15:47 | 40.14120 | -76.23708 | 27011 ft | 417 kts | 244° |
| 2026-05-05 15:47 | 40.13241 | -76.25953 | 26650 ft | 424 kts | 244° |
| 2026-05-05 15:47 | 40.11439 | -76.30519 | 25876 ft | 423 kts | 242° |
| 2026-05-05 15:47 | 40.09946 | -76.33793 | 25279 ft | 419 kts | 239° |
| 2026-05-05 15:48 | 40.08429 | -76.37027 | 24682 ft | 414 kts | 240° |
| 2026-05-05 15:48 | 40.06952 | -76.40183 | 24110 ft | 408 kts | 240° |
| 2026-05-05 15:48 | 40.05478 | -76.43341 | 23542 ft | 403 kts | 240° |
| 2026-05-05 15:48 | 40.04046 | -76.46415 | 22994 ft | 397 kts | 240° |
| 2026-05-05 15:49 | 40.02623 | -76.49475 | 22435 ft | 392 kts | 240° |
| 2026-05-05 15:49 | 40.01219 | -76.52491 | 21878 ft | 388 kts | 240° |
| 2026-05-05 15:49 | 39.99832 | -76.55475 | 21342 ft | 383 kts | 240° |
| 2026-05-05 15:49 | 39.98450 | -76.58446 | 20789 ft | 380 kts | 240° |
| 2026-05-05 15:50 | 39.97081 | -76.61385 | 20234 ft | 376 kts | 240° |
| 2026-05-05 15:50 | 39.95749 | -76.64249 | 19685 ft | 373 kts | 240° |
| 2026-05-05 15:50 | 39.94387 | -76.67169 | 19115 ft | 370 kts | 240° |
| 2026-05-05 15:50 | 39.93059 | -76.70019 | 18551 ft | 367 kts | 240° |
| 2026-05-05 15:51 | 39.91756 | -76.72815 | 17997 ft | 364 kts | 240° |
| 2026-05-05 15:51 | 39.90449 | -76.75618 | 17436 ft | 361 kts | 240° |
| 2026-05-05 15:51 | 39.89133 | -76.78433 | 16858 ft | 358 kts | 240° |
| 2026-05-05 15:51 | 39.87860 | -76.81158 | 16298 ft | 355 kts | 240° |
| 2026-05-05 15:52 | 39.86572 | -76.83911 | 15745 ft | 352 kts | 240° |
| 2026-05-05 15:52 | 39.85317 | -76.86592 | 15230 ft | 348 kts | 240° |
| 2026-05-05 15:52 | 39.84061 | -76.89271 | 14690 ft | 344 kts | 240° |
| 2026-05-05 15:52 | 39.82816 | -76.91926 | 14140 ft | 341 kts | 240° |
| 2026-05-05 15:53 | 39.81597 | -76.94524 | 13597 ft | 339 kts | 240° |
| 2026-05-05 15:53 | 39.80361 | -76.97152 | 13038 ft | 336 kts | 239° |
| 2026-05-05 15:53 | 39.79152 | -76.99723 | 12492 ft | 334 kts | 239° |
| 2026-05-05 15:53 | 39.77941 | -77.02293 | 11947 ft | 331 kts | 239° |
| 2026-05-05 15:54 | 39.76754 | -77.04817 | 11409 ft | 329 kts | 239° |
| 2026-05-05 15:54 | 39.75570 | -77.07335 | 10937 ft | 324 kts | 239° |
| 2026-05-05 15:54 | 39.74427 | -77.09756 | 10823 ft | 309 kts | 238° |
| 2026-05-05 15:54 | 39.73321 | -77.12090 | 10726 ft | 294 kts | 238° |
| 2026-05-05 15:55 | 39.72277 | -77.14303 | 10596 ft | 281 kts | 238° |
| 2026-05-05 15:55 | 39.71282 | -77.16406 | 10461 ft | 270 kts | 238° |
| 2026-05-05 15:55 | 39.70319 | -77.18449 | 10353 ft | 259 kts | 238° |
| 2026-05-05 15:55 | 39.69390 | -77.20409 | 10241 ft | 249 kts | 238° |
| 2026-05-05 15:56 | 39.68459 | -77.22272 | 10102 ft | 241 kts | 231° |
| 2026-05-05 15:56 | 39.67290 | -77.23822 | 9909 ft | 241 kts | 225° |
| 2026-05-05 15:56 | 39.66063 | -77.25312 | 9799 ft | 245 kts | 225° |
| 2026-05-05 15:56 | 39.64803 | -77.26829 | 9688 ft | 246 kts | 225° |
| 2026-05-05 15:57 | 39.63543 | -77.28341 | 9580 ft | 246 kts | 225° |
| 2026-05-05 15:57 | 39.62296 | -77.29839 | 9474 ft | 246 kts | 225° |
| 2026-05-05 15:57 | 39.61031 | -77.31358 | 9374 ft | 247 kts | 225° |
| 2026-05-05 15:57 | 39.59775 | -77.32864 | 9269 ft | 247 kts | 225° |
| 2026-05-05 15:58 | 39.58512 | -77.34383 | 9157 ft | 247 kts | 225° |
| 2026-05-05 15:58 | 39.57240 | -77.35901 | 9042 ft | 247 kts | 224° |
| 2026-05-05 15:58 | 39.55773 | -77.37082 | 8927 ft | 252 kts | 205° |
| 2026-05-05 15:58 | 39.54122 | -77.37833 | 8851 ft | 253 kts | 204° |
| 2026-05-05 15:59 | 39.52478 | -77.38674 | 8765 ft | 252 kts | 207° |
| 2026-05-05 15:59 | 39.50880 | -77.39592 | 8677 ft | 251 kts | 208° |
| 2026-05-05 15:59 | 39.49287 | -77.40548 | 8556 ft | 251 kts | 208° |
| 2026-05-05 15:59 | 39.47706 | -77.41496 | 8453 ft | 251 kts | 209° |
| 2026-05-05 16:00 | 39.46114 | -77.42448 | 8371 ft | 251 kts | 209° |
| 2026-05-05 16:00 | 39.44520 | -77.43404 | 8293 ft | 251 kts | 208° |
| 2026-05-05 16:00 | 39.42939 | -77.44350 | 8240 ft | 251 kts | 209° |
| 2026-05-05 16:00 | 39.41345 | -77.45303 | 8178 ft | 251 kts | 208° |
| 2026-05-05 16:01 | 39.39766 | -77.46249 | 8093 ft | 251 kts | 208° |
| 2026-05-05 16:01 | 39.38055 | -77.46797 | 7984 ft | 257 kts | 190° |
| 2026-05-05 16:01 | 39.36237 | -77.46895 | 7682 ft | 261 kts | 186° |
| 2026-05-05 16:01 | 39.34420 | -77.46917 | 7339 ft | 261 kts | 186° |
| 2026-05-05 16:02 | 39.32603 | -77.46938 | 7027 ft | 260 kts | 186° |
| 2026-05-05 16:02 | 39.30798 | -77.46957 | 6691 ft | 260 kts | 186° |
| 2026-05-05 16:02 | 39.28973 | -77.46985 | 6320 ft | 262 kts | 186° |
| 2026-05-05 16:02 | 39.27174 | -77.47014 | 5945 ft | 260 kts | 186° |
| 2026-05-05 16:03 | 39.25381 | -77.47040 | 5610 ft | 251 kts | 186° |
| 2026-05-05 16:03 | 39.23687 | -77.47056 | 5346 ft | 240 kts | 186° |
| 2026-05-05 16:03 | 39.22007 | -77.47069 | 5036 ft | 239 kts | 186° |
| 2026-05-05 16:03 | 39.20356 | -77.47089 | 4730 ft | 238 kts | 186° |
| 2026-05-05 16:04 | 39.18689 | -77.47118 | 4423 ft | 237 kts | 186° |
| 2026-05-05 16:04 | 39.17056 | -77.47144 | 4116 ft | 233 kts | 186° |
| 2026-05-05 16:04 | 39.15491 | -77.47166 | 3824 ft | 218 kts | 186° |
| 2026-05-05 16:04 | 39.14019 | -77.47184 | 3549 ft | 206 kts | 186° |
| 2026-05-05 16:05 | 39.12614 | -77.47216 | 3284 ft | 196 kts | 187° |
| 2026-05-05 16:05 | 39.11278 | -77.47239 | 3031 ft | 187 kts | 186° |
| 2026-05-05 16:05 | 39.10013 | -77.47257 | 2813 ft | 175 kts | 185° |
| 2026-05-05 16:05 | 39.08840 | -77.47272 | 2604 ft | 165 kts | 185° |
| 2026-05-05 16:06 | 39.07752 | -77.47285 | 2389 ft | 147 kts | 186° |
| 2026-05-05 16:06 | 39.06764 | -77.47301 | 2225 ft | 138 kts | 187° |
| 2026-05-05 16:06 | 39.05819 | -77.47317 | 2037 ft | 135 kts | 187° |
| 2026-05-05 16:06 | 39.04875 | -77.47331 | 1842 ft | 135 kts | 186° |
| 2026-05-05 16:07 | 39.03914 | -77.47345 | 1651 ft | 135 kts | 186° |
| 2026-05-05 16:07 | 39.02986 | -77.47360 | 1467 ft | 135 kts | 185° |
| 2026-05-05 16:07 | 39.02032 | -77.47374 | 1276 ft | 136 kts | 184° |
| 2026-05-05 16:07 | 39.01085 | -77.47386 | 1084 ft | 135 kts | 184° |
| 2026-05-05 16:08 | 39.00148 | -77.47398 | 896 ft | 133 kts | 182° |
| 2026-05-05 16:08 | 38.99210 | -77.47414 | 725 ft | 135 kts | 180° |
| 2026-05-05 16:08 | 38.98255 | -77.47427 | 553 ft | 138 kts | 180° |
| 2026-05-05 16:08 | 38.97273 | -77.47433 | 351 ft | 143 kts | 181° |
| 2026-05-05 16:09 | 38.96345 | -77.47451 | 284 ft | 116 kts | 182° |
| 2026-05-05 16:09 | 38.95685 | -77.47469 | 289 ft | 72 kts | 182° |
| 2026-05-05 16:09 | 38.95353 | -77.47464 | 296 ft | 35 kts | 170° |
| 2026-05-05 16:09 | 38.95158 | -77.47372 | 297 ft | 22 kts | 151° |
| 2026-05-05 16:10 | 38.95075 | -77.47311 | 296 ft | 9 kts | 153° |
| 2026-05-05 16:10 | 38.95043 | -77.47239 | 296 ft | 13 kts | 93° |
| 2026-05-05 16:10 | 38.95041 | -77.47073 | 294 ft | 24 kts | 90° |
| 2026-05-05 16:10 | 38.95039 | -77.46812 | 289 ft | 31 kts | 91° |
| 2026-05-05 16:11 | 38.95036 | -77.46534 | 286 ft | 30 kts | 89° |
| 2026-05-05 16:11 | 38.95021 | -77.45951 | 289 ft | 10 kts | 119° |
| 2026-05-05 16:12 | 38.94958 | -77.45880 | 291 ft | 14 kts | 147° |
| 2026-05-05 16:12 | 38.94793 | -77.45763 | 294 ft | 11 kts | 154° |
| 2026-05-05 16:13 | 38.94663 | -77.45646 | 296 ft | 7 kts | 89° |
| 2026-05-05 16:13 | 38.94667 | -77.45555 | 296 ft | 7 kts | 86° |
| 2026-05-05 16:13 | 38.94660 | -77.45501 | 296 ft | 5 kts | 135° |
| 2026-05-05 16:14 | 38.94612 | -77.45493 | 297 ft | 0 kts | 181° |
| 2026-05-05 16:14 | 38.94607 | -77.45493 | 297 ft | 0 kts | 181° |